Time;durP1;ratioP1;P1;durP2;ratioP2;P2;SDS_P1;SDS_P2;PMS_P1;PMS_P2;Temp;Humidity;BMP_temperature;BMP_pressure;BME280_temperature;BME280_humidity;BME280_pressure;Samples;Min_cycle;Max_cycle;Signal;HPM_P1;HPM_P2
2021/05/30 00:00:16;;;;;;;3.03;1.52;;;;;;;14.11;47.99;93960.91;5092962;28;20051;-75
2021/05/30 00:02:41;;;;;;;4.50;1.42;;;;;;;14.07;47.75;93965.38;5092626;28;20121;-75
2021/05/30 00:05:09;;;;;;;2.80;1.40;;;;;;;14.08;47.68;93953.53;5092584;28;20126;-75
2021/05/30 00:07:35;;;;;;;2.15;1.35;;;;;;;14.03;48.10;93957.22;5092450;28;20046;-75
2021/05/30 00:10:00;;;;;;;2.20;1.42;;;;;;;13.97;47.89;93953.19;5093781;28;20032;-75
2021/05/30 00:12:26;;;;;;;2.50;1.70;;;;;;;13.99;48.13;93942.91;5104764;28;20049;-75
2021/05/30 00:14:51;;;;;;;5.93;1.80;;;;;;;13.93;48.53;93945.00;5114055;28;20413;-75
2021/05/30 00:17:17;;;;;;;4.50;1.40;;;;;;;13.94;48.48;93943.91;5098004;28;20028;-75
2021/05/30 00:19:43;;;;;;;2.15;1.38;;;;;;;13.93;48.30;93942.34;5113308;28;20089;-75
2021/05/30 00:22:10;;;;;;;11.23;1.48;;;;;;;13.84;48.84;93947.03;5095236;28;20036;-75
2021/05/30 00:24:36;;;;;;;5.07;2.10;;;;;;;13.79;49.36;93941.84;5093489;28;20026;-75
2021/05/30 00:27:01;;;;;;;1.77;1.30;;;;;;;13.84;47.87;93941.66;5093653;28;20056;-75
2021/05/30 00:29:26;;;;;;;2.25;1.40;;;;;;;13.84;48.17;93947.78;5092414;28;20078;-75
2021/05/30 00:31:52;;;;;;;3.42;1.50;;;;;;;13.85;48.26;93933.28;5092102;28;20027;-75
2021/05/30 00:34:18;;;;;;;4.35;1.67;;;;;;;13.81;48.39;93942.31;5093329;28;20471;-75
2021/05/30 00:36:43;;;;;;;2.35;1.33;;;;;;;13.72;48.68;93936.25;5107926;28;20032;-75
2021/05/30 00:39:08;;;;;;;2.20;1.38;;;;;;;13.72;48.45;93938.91;5112336;28;20024;-75
2021/05/30 00:41:34;;;;;;;3.85;1.58;;;;;;;13.66;48.66;93946.41;5096487;28;20110;-75
2021/05/30 00:43:59;;;;;;;4.10;1.55;;;;;;;13.66;48.62;93957.13;5093178;28;20136;-75
2021/05/30 00:46:25;;;;;;;5.20;1.90;;;;;;;13.67;48.79;93947.94;5092934;28;20039;-75
2021/05/30 00:48:51;;;;;;;2.45;1.50;;;;;;;13.69;48.69;93948.41;5096205;28;20036;-75
2021/05/30 00:51:17;;;;;;;4.90;1.90;;;;;;;13.67;48.76;93947.94;5091877;28;20031;-75
2021/05/30 00:53:43;;;;;;;5.35;1.33;;;;;;;13.69;49.12;93944.94;5097844;28;20099;-75
2021/05/30 00:56:13;;;;;;;2.50;1.50;;;;;;;13.62;48.95;93946.28;5113198;28;20625;-75
2021/05/30 00:58:39;;;;;;;3.00;1.73;;;;;;;13.62;48.83;93948.16;5092735;28;20539;-75
2021/05/30 01:01:05;;;;;;;2.53;1.60;;;;;;;13.68;48.30;93948.72;5093137;28;20172;-75
2021/05/30 01:03:38;;;;;;;2.85;1.30;;;;;;;13.61;48.78;93949.28;5092872;28;20032;-75
2021/05/30 01:06:05;;;;;;;3.22;1.52;;;;;;;13.62;48.54;93959.66;5091672;28;20475;-75
2021/05/30 01:08:30;;;;;;;2.03;1.30;;;;;;;13.64;48.93;93948.63;5112112;28;20052;-75
2021/05/30 01:10:58;;;;;;;8.07;1.70;;;;;;;13.60;48.73;93947.72;5101593;28;20072;-75
2021/05/30 01:13:25;;;;;;;4.70;1.65;;;;;;;13.64;48.28;93937.91;5102433;28;20042;-75
2021/05/30 01:15:51;;;;;;;3.95;1.30;;;;;;;13.67;48.15;93950.63;5113187;28;20414;-75
2021/05/30 01:18:21;;;;;;;3.88;1.60;;;;;;;13.67;48.74;93947.19;5113149;28;20036;-75
2021/05/30 01:20:47;;;;;;;2.95;1.40;;;;;;;13.63;48.37;93952.41;5103122;28;20019;-75
2021/05/30 01:23:15;;;;;;;1.98;1.35;;;;;;;13.56;48.80;93957.53;5112805;28;20031;-75
2021/05/30 01:25:41;;;;;;;2.05;1.42;;;;;;;13.58;48.69;93961.44;5111347;28;20106;-75
2021/05/30 01:28:07;;;;;;;2.20;1.40;;;;;;;13.50;49.65;93961.50;5111468;28;20451;-75
2021/05/30 01:30:33;;;;;;;5.57;1.85;;;;;;;13.43;48.84;93957.47;5104124;28;20035;-75
2021/05/30 01:32:59;;;;;;;2.63;1.48;;;;;;;13.49;49.46;93951.91;5092353;28;20024;-75
2021/05/30 01:35:25;;;;;;;3.08;1.75;;;;;;;13.40;48.98;93960.78;5103914;28;20088;-74
2021/05/30 01:37:51;;;;;;;3.38;1.90;;;;;;;13.39;48.98;93950.41;5112611;28;20035;-75
2021/05/30 01:40:18;;;;;;;2.00;1.35;;;;;;;13.40;49.12;93943.94;5111175;28;20066;-75
2021/05/30 01:42:45;;;;;;;6.22;1.35;;;;;;;13.37;48.33;93961.47;5112234;28;20098;-75
2021/05/30 01:45:11;;;;;;;4.57;1.77;;;;;;;13.32;48.54;93955.50;5099445;27;20031;-75
2021/05/30 01:47:38;;;;;;;5.35;1.55;;;;;;;13.28;48.88;93941.97;5093488;28;20035;-75
2021/05/30 01:50:06;;;;;;;3.90;1.40;;;;;;;13.36;48.33;93948.41;5112262;28;20031;-75
2021/05/30 01:52:31;;;;;;;4.20;1.50;;;;;;;13.41;48.50;93940.16;5112292;28;20027;-75
2021/05/30 01:54:57;;;;;;;1.77;1.40;;;;;;;13.35;48.84;93949.50;5104428;28;20028;-74
2021/05/30 01:57:22;;;;;;;3.03;1.60;;;;;;;13.35;48.69;93944.94;5091779;28;20513;-75
2021/05/30 01:59:48;;;;;;;4.03;1.75;;;;;;;13.29;48.95;93948.09;5100898;28;20038;-74
2021/05/30 02:02:13;;;;;;;3.50;1.38;;;;;;;13.31;49.16;93948.59;5112572;28;20024;-75
2021/05/30 02:04:43;;;;;;;1.83;1.33;;;;;;;13.29;48.97;93961.47;5110728;28;20024;-75
2021/05/30 02:07:08;;;;;;;3.55;1.70;;;;;;;13.27;49.27;93951.13;5109800;28;20030;-75
2021/05/30 02:09:37;;;;;;;2.97;1.50;;;;;;;13.24;49.07;93946.41;5111953;28;20031;-75
2021/05/30 02:12:07;;;;;;;4.70;1.70;;;;;;;13.29;48.74;93948.09;5091788;28;20081;-74
2021/05/30 02:14:33;;;;;;;4.05;1.60;;;;;;;13.24;49.19;93949.88;5097448;28;20096;-74
2021/05/30 02:16:59;;;;;;;2.40;1.50;;;;;;;13.25;49.18;93943.41;5110423;28;20027;-74
2021/05/30 02:19:24;;;;;;;1.40;0.98;;;;;;;13.22;49.10;93944.06;5111529;28;20031;-75
2021/05/30 02:21:52;;;;;;;3.28;1.50;;;;;;;13.23;49.09;93950.22;5091480;28;20024;-75
2021/05/30 02:24:20;;;;;;;3.15;1.50;;;;;;;13.21;48.95;93949.75;5093199;28;20027;-75
2021/05/30 02:26:46;;;;;;;2.65;1.50;;;;;;;13.19;49.30;93938.59;5110290;28;20475;-75
2021/05/30 02:29:38;;;;;;;4.93;1.50;;;;;;;13.23;49.17;93934.94;5099878;28;20047;-75
2021/05/30 02:32:06;;;;;;;6.45;2.35;;;;;;;13.23;48.94;93944.84;5089438;28;20411;-75
2021/05/30 02:34:32;;;;;;;5.30;1.42;;;;;;;13.21;49.19;93941.72;5099833;28;20031;-74
2021/05/30 02:36:58;;;;;;;3.08;1.42;;;;;;;13.22;49.70;93948.63;5110009;28;20095;-74
2021/05/30 02:39:23;;;;;;;2.63;1.50;;;;;;;13.21;49.64;93944.41;5111424;28;20102;-75
2021/05/30 02:41:49;;;;;;;2.55;1.30;;;;;;;13.17;49.71;93946.16;5094901;28;20023;-75
2021/05/30 02:44:15;;;;;;;2.50;1.55;;;;;;;13.16;49.77;93949.94;5089581;28;20497;-75
2021/05/30 02:46:40;;;;;;;1.95;1.48;;;;;;;13.18;49.21;93945.81;5089587;28;20056;-75
2021/05/30 02:49:06;;;;;;;3.38;1.27;;;;;;;13.18;49.46;93945.03;5089582;28;20035;-75
2021/05/30 02:51:32;;;;;;;2.47;1.60;;;;;;;13.17;49.78;93946.16;5103268;28;20026;-75
2021/05/30 02:53:58;;;;;;;2.17;1.40;;;;;;;13.11;50.29;93947.44;5103838;28;20165;-75
2021/05/30 02:56:25;;;;;;;2.20;1.38;;;;;;;13.11;51.16;93947.44;5101792;28;20428;-75
2021/05/30 02:58:51;;;;;;;3.25;1.98;;;;;;;13.08;50.20;93945.44;5099299;28;20035;-75
2021/05/30 03:01:16;;;;;;;4.80;1.90;;;;;;;12.99;50.13;93946.28;5090807;28;20027;-75
2021/05/30 03:03:41;;;;;;;3.00;1.52;;;;;;;13.02;50.10;93950.97;5090702;28;20032;-75
2021/05/30 03:06:07;;;;;;;2.42;1.73;;;;;;;13.00;50.17;93947.84;5090773;28;20411;-75
2021/05/30 03:08:32;;;;;;;2.50;1.70;;;;;;;13.04;50.73;93948.75;5089105;28;20044;-75
2021/05/30 03:10:57;;;;;;;2.67;1.70;;;;;;;13.00;51.15;93945.16;5089142;28;20024;-75
2021/05/30 03:13:23;;;;;;;5.32;1.25;;;;;;;12.95;51.11;93948.03;5090240;28;20190;-75
2021/05/30 03:15:48;;;;;;;4.68;1.95;;;;;;;12.89;51.74;93951.25;5090433;28;20031;-75
2021/05/30 03:18:14;;;;;;;9.77;1.65;;;;;;;12.88;52.09;93947.75;5097398;28;20107;-75
2021/05/30 03:20:39;;;;;;;3.08;1.60;;;;;;;12.85;51.63;93951.09;5110738;28;20088;-75
2021/05/30 03:23:05;;;;;;;2.92;1.73;;;;;;;12.87;51.51;93943.53;5091145;28;20020;-75
2021/05/30 03:25:30;;;;;;;3.17;1.90;;;;;;;12.85;51.88;93948.44;5107758;28;20019;-75
2021/05/30 03:27:56;;;;;;;2.90;1.80;;;;;;;12.88;51.90;93952.34;5103931;28;20051;-75
2021/05/30 03:30:21;;;;;;;1.90;1.40;;;;;;;12.85;51.92;93951.09;5090176;28;20418;-75
2021/05/30 03:32:47;;;;;;;2.42;1.60;;;;;;;12.79;52.28;93952.41;5090580;28;20016;-75
2021/05/30 03:35:12;;;;;;;2.67;1.60;;;;;;;12.74;52.10;93956.03;5097301;28;20114;-75
2021/05/30 03:37:38;;;;;;;3.28;1.88;;;;;;;12.75;51.96;93946.13;5110474;28;20020;-75
2021/05/30 03:40:11;;;;;;;9.07;1.92;;;;;;;12.79;51.98;93953.16;5110477;28;20470;-75
2021/05/30 03:42:41;;;;;;;3.72;1.55;;;;;;;12.76;52.19;93947.69;5109010;28;20030;-75
2021/05/30 03:45:07;;;;;;;6.63;2.15;;;;;;;12.83;51.96;93948.75;5094594;28;20036;-75
2021/05/30 03:47:33;;;;;;;4.32;1.90;;;;;;;12.79;51.99;93952.41;5089959;28;20043;-75
2021/05/30 03:49:58;;;;;;;5.43;1.92;;;;;;;12.78;51.84;93950.81;5090005;28;20031;-76
2021/05/30 03:52:23;;;;;;;5.63;2.33;;;;;;;12.84;52.28;93949.50;5090150;28;20064;-75
2021/05/30 03:54:49;;;;;;;2.95;1.70;;;;;;;12.90;52.00;93953.56;5101568;28;20526;-75
2021/05/30 03:57:15;;;;;;;3.45;1.80;;;;;;;12.93;51.75;93949.47;5108228;28;20043;-75
2021/05/30 03:59:40;;;;;;;3.25;1.60;;;;;;;12.90;52.34;93947.44;5108409;28;20144;-75
2021/05/30 04:02:06;;;;;;;2.67;1.95;;;;;;;12.95;52.69;93944.59;5091471;28;20019;-75
2021/05/30 04:04:31;;;;;;;2.50;1.60;;;;;;;12.96;52.41;93938.13;5088742;28;20030;-75
2021/05/30 04:06:57;;;;;;;3.78;1.90;;;;;;;12.98;51.84;93944.69;5108668;28;20028;-75
2021/05/30 04:09:22;;;;;;;4.47;1.77;;;;;;;13.05;51.80;93938.84;5110281;28;20475;-75
2021/05/30 04:11:48;;;;;;;3.08;1.63;;;;;;;13.07;51.66;93944.66;5108908;28;20024;-75
2021/05/30 04:14:13;;;;;;;6.57;1.40;;;;;;;13.12;51.69;93949.03;5110110;28;20042;-75
2021/05/30 04:16:38;;;;;;;4.43;1.75;;;;;;;13.11;51.45;93942.09;5108882;28;20397;-75
2021/05/30 04:19:04;;;;;;;2.60;1.70;;;;;;;13.04;51.66;93947.97;5109344;28;20556;-75
2021/05/30 04:21:29;;;;;;;3.70;1.48;;;;;;;13.07;51.93;93949.19;5108807;28;22793;-75
2021/05/30 04:23:55;;;;;;;1.85;1.33;;;;;;;13.12;51.35;93946.34;5101656;28;20070;-75
2021/05/30 04:26:20;;;;;;;2.85;1.73;;;;;;;13.14;51.02;93946.81;5110040;28;20114;-75
2021/05/30 04:28:46;;;;;;;4.57;1.70;;;;;;;13.10;51.39;93946.66;5109941;28;20452;-75
2021/05/30 04:31:11;;;;;;;4.72;1.70;;;;;;;13.11;51.57;93953.59;5114110;28;20039;-75
2021/05/30 04:33:37;;;;;;;5.45;1.65;;;;;;;13.16;51.56;93956.06;5112468;28;20471;-75
2021/05/30 04:36:02;;;;;;;2.35;1.33;;;;;;;13.18;50.92;93955.75;5103071;28;20441;-75
2021/05/30 04:38:28;;;;;;;2.30;1.55;;;;;;;13.23;51.62;93948.31;5092156;28;20028;-75
2021/05/30 04:40:53;;;;;;;3.75;1.65;;;;;;;13.23;51.00;93953.66;5091955;28;20478;-75
2021/05/30 04:43:19;;;;;;;5.07;1.60;;;;;;;13.26;51.91;93949.53;5093605;28;20035;-75
2021/05/30 04:45:44;;;;;;;4.20;1.63;;;;;;;13.30;52.22;93950.47;5093153;28;20502;-75
2021/05/30 04:48:10;;;;;;;2.55;1.50;;;;;;;13.25;51.52;93946.09;5093218;28;20050;-75
2021/05/30 04:50:35;;;;;;;1.70;1.30;;;;;;;13.30;51.99;93936.31;5093123;28;20020;-74
2021/05/30 04:53:01;;;;;;;2.67;1.40;;;;;;;13.37;51.41;93942.72;5109725;28;20456;-74
2021/05/30 04:55:28;;;;;;;4.55;1.77;;;;;;;13.42;50.66;93937.16;5111873;28;20509;-75
2021/05/30 04:57:53;;;;;;;3.53;1.83;;;;;;;13.46;50.81;93936.50;5099716;28;20085;-74
2021/05/30 05:00:19;;;;;;;2.53;1.48;;;;;;;13.53;51.60;93936.75;5095946;28;20023;-75
2021/05/30 05:02:44;;;;;;;5.20;1.60;;;;;;;13.53;50.76;93939.41;5094251;28;20479;-75
2021/05/30 05:05:11;;;;;;;3.55;1.55;;;;;;;13.55;49.96;93934.53;5092885;28;20748;-75
2021/05/30 05:07:40;;;;;;;2.80;1.90;;;;;;;13.59;49.73;93938.88;5093516;28;20036;-75
2021/05/30 05:10:06;;;;;;;4.15;1.77;;;;;;;13.66;48.38;93938.38;5112938;28;20035;-75
2021/05/30 05:12:32;;;;;;;3.72;1.65;;;;;;;13.62;47.47;93943.59;5111691;28;20046;-75
2021/05/30 05:14:57;;;;;;;3.20;1.92;;;;;;;13.62;47.95;93938.25;5111525;28;20459;-75
2021/05/30 05:17:22;;;;;;;2.97;1.55;;;;;;;13.64;47.86;93945.94;5110606;28;20019;-74
2021/05/30 05:19:48;;;;;;;2.42;1.50;;;;;;;13.67;48.26;93942.59;5108502;28;20019;-75
2021/05/30 05:22:14;;;;;;;2.65;1.42;;;;;;;13.78;48.31;93949.13;5113410;28;20047;-75
2021/05/30 05:24:39;;;;;;;3.67;1.60;;;;;;;13.82;47.60;93952.69;5112859;28;20117;-75
2021/05/30 05:27:05;;;;;;;2.35;1.35;;;;;;;13.83;47.12;93946.22;5104301;28;20023;-74
2021/05/30 05:29:30;;;;;;;2.83;1.45;;;;;;;13.89;48.28;93943.34;5112628;28;20027;-74
2021/05/30 05:31:56;;;;;;;4.10;1.50;;;;;;;13.89;48.77;93948.69;5112934;28;20098;-74
2021/05/30 05:34:21;;;;;;;2.78;1.90;;;;;;;13.91;48.38;93946.47;5112562;28;20035;-75
2021/05/30 05:36:47;;;;;;;6.85;1.90;;;;;;;13.84;48.17;93955.06;5112562;28;20061;-74
2021/05/30 05:39:12;;;;;;;2.35;1.55;;;;;;;13.90;48.32;93952.94;5112552;28;20068;-75
2021/05/30 05:41:38;;;;;;;8.10;2.15;;;;;;;14.02;49.01;93952.94;5110832;28;20070;-75
2021/05/30 05:44:03;;;;;;;7.35;1.58;;;;;;;13.97;49.01;93950.50;5104377;28;20027;-75
2021/05/30 05:46:29;;;;;;;4.03;1.30;;;;;;;14.07;48.65;93962.69;5092022;28;20043;-75
2021/05/30 05:48:54;;;;;;;6.80;1.58;;;;;;;14.15;48.77;93957.22;5091097;28;20108;-75
2021/05/30 05:51:20;;;;;;;5.38;1.48;;;;;;;14.25;49.03;93964.06;5090628;28;20047;-75
2021/05/30 05:53:46;;;;;;;2.15;1.40;;;;;;;14.24;47.15;93962.50;5091947;28;20153;-75
2021/05/30 05:56:12;;;;;;;5.75;1.52;;;;;;;14.22;46.84;93965.50;5090093;28;20063;-75
2021/05/30 05:58:37;;;;;;;2.40;1.30;;;;;;;14.15;45.55;93965.28;5091580;28;20509;-75
2021/05/30 06:01:03;;;;;;;5.63;1.60;;;;;;;14.18;46.81;93969.19;5091750;28;20084;-75
2021/05/30 06:03:29;;;;;;;3.42;1.48;;;;;;;14.18;45.83;93967.28;5100327;28;20031;-75
2021/05/30 06:05:54;;;;;;;2.13;1.55;;;;;;;14.12;46.16;93963.25;5091536;28;20042;-75
2021/05/30 06:08:20;;;;;;;8.30;1.50;;;;;;;14.11;46.28;93969.75;5101290;28;20078;-75
2021/05/30 06:10:45;;;;;;;2.35;1.38;;;;;;;14.12;45.71;93963.25;5107898;28;20118;-75
2021/05/30 06:13:11;;;;;;;3.20;1.20;;;;;;;14.13;46.40;93959.47;5112001;28;20462;-75
2021/05/30 06:15:43;;;;;;;7.50;1.45;;;;;;;14.16;47.02;93968.72;5111712;28;20035;-75
2021/05/30 06:18:11;;;;;;;2.65;1.80;;;;;;;14.19;47.18;93968.84;5101063;28;20028;-75
2021/05/30 06:20:37;;;;;;;2.15;1.25;;;;;;;14.24;47.11;93976.66;5091190;28;20032;-75
2021/05/30 06:23:03;;;;;;;1.90;1.35;;;;;;;14.30;46.00;93968.41;5100856;28;20030;-75
2021/05/30 06:25:29;;;;;;;8.50;1.50;;;;;;;14.37;47.18;93971.31;5111653;27;20099;-75
2021/05/30 06:27:56;;;;;;;2.15;1.40;;;;;;;14.39;47.10;93971.78;5109094;28;20507;-75
2021/05/30 06:30:24;;;;;;;3.47;1.58;;;;;;;14.48;45.82;93969.00;5102672;28;20032;-75
2021/05/30 06:32:49;;;;;;;5.28;1.30;;;;;;;14.42;46.92;93977.25;5102098;28;20020;-76
2021/05/30 06:35:14;;;;;;;2.97;1.33;;;;;;;14.49;47.34;93971.34;5100412;28;20524;-76
2021/05/30 06:37:40;;;;;;;3.10;1.38;;;;;;;14.51;47.32;93971.81;5098866;28;20035;-77
2021/05/30 06:40:06;;;;;;;4.03;1.65;;;;;;;14.59;48.64;93975.50;5101906;28;20035;-77
2021/05/30 06:42:32;;;;;;;5.93;1.67;;;;;;;14.64;48.75;93977.97;5110067;28;20076;-77
2021/05/30 06:44:57;;;;;;;3.05;1.30;;;;;;;14.69;47.82;93976.97;5110178;28;20027;-75
2021/05/30 06:47:23;;;;;;;2.83;1.50;;;;;;;14.67;46.52;93976.53;5101488;28;20089;-76
2021/05/30 06:49:48;;;;;;;1.92;1.20;;;;;;;14.71;47.34;93977.41;5101538;28;20034;-76
2021/05/30 06:52:14;;;;;;;9.13;1.35;;;;;;;14.70;46.75;93981.22;5092707;28;20032;-78
2021/05/30 06:54:39;;;;;;;2.85;1.50;;;;;;;14.63;47.31;93990.63;5107540;28;20055;-76
2021/05/30 06:57:05;;;;;;;2.33;1.42;;;;;;;14.55;47.86;93988.78;5096495;28;20023;-75
2021/05/30 06:59:31;;;;;;;2.97;1.65;;;;;;;14.52;48.28;93989.44;5094452;28;20012;-76
2021/05/30 07:01:56;;;;;;;2.38;1.33;;;;;;;14.57;48.86;93994.63;5096836;28;20020;-75
2021/05/30 07:04:22;;;;;;;2.97;1.50;;;;;;;14.54;48.44;94000.63;5097299;28;20110;-76
2021/05/30 07:06:49;;;;;;;3.38;1.55;;;;;;;14.62;48.37;94005.13;5097845;28;20019;-73
2021/05/30 07:09:14;;;;;;;1.83;1.30;;;;;;;14.55;48.32;94001.41;5104229;28;20044;-75
2021/05/30 07:11:40;;;;;;;4.25;1.50;;;;;;;14.44;48.76;94001.06;5101349;28;20031;-74
2021/05/30 07:14:05;;;;;;;8.27;1.80;;;;;;;14.36;48.00;93993.91;5102659;28;20100;-74
2021/05/30 07:16:30;;;;;;;3.05;1.60;;;;;;;14.34;48.63;93996.91;5102612;28;20019;-74
2021/05/30 07:18:56;;;;;;;3.55;1.77;;;;;;;14.36;49.68;94004.63;5095864;28;20039;-74
2021/05/30 07:21:22;;;;;;;7.75;3.65;;;;;;;14.30;48.09;94012.09;5108301;28;20031;-74
2021/05/30 07:23:47;;;;;;;4.63;2.08;;;;;;;14.28;48.85;94002.81;5098015;28;20062;-74
2021/05/30 07:26:14;;;;;;;2.40;2.10;;;;;;;14.27;48.09;93998.56;5093604;28;20107;-74
2021/05/30 07:28:39;;;;;;;1.98;1.40;;;;;;;14.31;48.94;94002.94;5100272;28;20042;-74
2021/05/30 07:31:05;;;;;;;4.45;1.60;;;;;;;14.31;48.45;94002.16;5100692;28;20483;-74
2021/05/30 07:33:30;;;;;;;4.43;1.40;;;;;;;14.41;49.58;93999.03;5105787;28;20023;-74
2021/05/30 07:35:56;;;;;;;3.20;1.77;;;;;;;14.57;47.34;94000.00;5104361;28;20102;-74
2021/05/30 07:38:21;;;;;;;2.80;1.50;;;;;;;14.62;47.34;93999.00;5107579;28;20032;-74
2021/05/30 07:40:47;;;;;;;4.18;1.40;;;;;;;14.75;47.78;93997.84;5101426;28;20531;-75
2021/05/30 07:43:13;;;;;;;5.72;1.30;;;;;;;14.69;45.74;93991.16;5097513;28;20024;-76
2021/05/30 07:45:38;;;;;;;2.08;1.60;;;;;;;14.69;46.16;93985.00;5092303;28;20016;-75
2021/05/30 07:48:04;;;;;;;3.67;1.58;;;;;;;14.90;47.73;94000.97;5100009;28;20062;-75
2021/05/30 07:50:29;;;;;;;1.90;1.38;;;;;;;14.97;46.68;93985.88;5093705;28;20504;-75
2021/05/30 07:52:55;;;;;;;4.18;1.70;;;;;;;14.95;45.14;93990.81;5089687;28;20024;-75
2021/05/30 07:55:20;;;;;;;1.95;1.42;;;;;;;14.85;45.04;94002.00;5088206;28;20415;-75
2021/05/30 07:57:46;;;;;;;7.68;1.70;;;;;;;14.78;45.38;93983.78;5088387;28;20024;-74
2021/05/30 08:00:15;;;;;;;4.03;1.90;;;;;;;14.92;47.41;93983.44;5089542;28;20020;-74
2021/05/30 08:02:41;;;;;;;4.38;1.45;;;;;;;14.93;45.44;93987.69;5108645;28;20035;-74
2021/05/30 08:05:10;;;;;;;5.82;2.08;;;;;;;14.94;46.72;93991.94;5110514;28;20020;-74
2021/05/30 08:07:35;;;;;;;2.65;1.60;;;;;;;15.12;47.61;93987.13;5112370;28;20116;-74
2021/05/30 08:10:00;;;;;;;3.38;1.85;;;;;;;15.08;45.74;93975.47;5093457;28;20055;-74
2021/05/30 08:12:26;;;;;;;3.03;1.70;;;;;;;15.12;45.50;93975.56;5092512;28;20107;-74
2021/05/30 08:14:53;;;;;;;3.22;1.40;;;;;;;15.19;45.46;93978.47;5093480;28;20128;-74
2021/05/30 08:17:18;;;;;;;2.42;1.63;;;;;;;15.24;46.89;93979.03;5092388;28;20081;-74
2021/05/30 08:19:44;;;;;;;5.68;1.58;;;;;;;15.22;46.59;93972.44;5109348;28;20028;-74
2021/05/30 08:22:10;;;;;;;2.45;1.73;;;;;;;15.35;45.55;93971.28;5113687;28;20028;-74
2021/05/30 08:24:37;;;;;;;4.70;1.40;;;;;;;15.50;45.11;93966.31;5103864;28;20096;-74
2021/05/30 08:27:03;;;;;;;2.75;1.60;;;;;;;15.49;44.39;93962.84;5112235;28;20039;-74
2021/05/30 08:29:28;;;;;;;12.05;1.98;;;;;;;15.55;44.95;93976.81;5113710;28;20100;-74
2021/05/30 08:31:55;;;;;;;4.30;2.10;;;;;;;15.70;44.62;93967.25;5113501;28;20032;-74
2021/05/30 08:34:21;;;;;;;2.85;1.73;;;;;;;15.73;46.16;93962.00;5113073;28;20016;-74
2021/05/30 08:36:48;;;;;;;2.55;1.75;;;;;;;15.82;45.39;93964.53;5098319;28;20027;-74
2021/05/30 08:39:14;;;;;;;1.98;1.40;;;;;;;15.90;45.11;93968.97;5102422;28;20414;-74
2021/05/30 08:41:41;;;;;;;2.97;1.85;;;;;;;16.02;45.00;93968.16;5112178;28;20082;-74
2021/05/30 08:44:07;;;;;;;2.13;1.40;;;;;;;16.01;45.37;93974.63;5113191;28;20080;-74
2021/05/30 08:46:33;;;;;;;5.88;1.70;;;;;;;16.02;45.07;93968.16;5113135;28;20016;-74
2021/05/30 08:49:01;;;;;;;2.90;1.60;;;;;;;15.83;44.44;93969.59;5111610;28;20478;-74
2021/05/30 08:51:26;;;;;;;7.72;1.92;;;;;;;15.77;45.28;93972.84;5113022;28;20031;-74
2021/05/30 08:53:52;;;;;;;2.38;1.60;;;;;;;15.72;44.04;93981.94;5113081;28;20028;-74
2021/05/30 08:56:18;;;;;;;5.82;1.90;;;;;;;15.67;43.95;93962.56;5112592;28;20039;-74
2021/05/30 08:58:45;;;;;;;3.20;1.70;;;;;;;15.77;44.44;93972.84;5112809;28;20117;-74
2021/05/30 09:01:13;;;;;;;4.30;2.00;;;;;;;15.81;45.05;93973.72;5111851;28;20479;-73
2021/05/30 09:04:04;;;;;;;5.97;1.75;;;;;;;15.87;45.08;93975.03;5111307;28;20479;-73
2021/05/30 09:06:30;;;;;;;3.30;1.70;;;;;;;15.88;44.53;93976.59;5111119;28;20102;-73
2021/05/30 09:08:55;;;;;;;3.33;1.80;;;;;;;15.72;45.54;93968.50;5111844;28;20046;-74
2021/05/30 09:11:40;;;;;;;7.53;1.90;;;;;;;15.84;44.52;93973.03;5110513;28;20028;-73
2021/05/30 09:14:10;;;;;;;5.90;1.90;;;;;;;15.87;45.17;93972.34;5095957;28;20029;-73
2021/05/30 09:17:03;;;;;;;7.57;1.70;;;;;;;15.90;44.52;93981.66;5112668;28;20039;-73
2021/05/30 09:19:33;;;;;;;3.55;1.83;;;;;;;15.76;44.84;93972.06;5111690;28;20504;-74
2021/05/30 09:22:13;;;;;;;3.08;1.80;;;;;;;15.73;45.52;93967.34;5109395;28;20460;-73
2021/05/30 09:24:38;;;;;;;2.55;1.65;;;;;;;15.81;45.85;93962.97;5090877;28;20135;-73
2021/05/30 09:27:08;;;;;;;3.17;1.83;;;;;;;15.96;44.42;93958.78;5092253;28;20055;-73
2021/05/30 09:29:34;;;;;;;2.92;1.63;;;;;;;15.93;45.31;93962.91;5094037;28;20092;-73
2021/05/30 09:32:00;;;;;;;8.55;2.15;;;;;;;15.99;45.76;93955.38;5092038;28;20027;-73
2021/05/30 09:34:32;;;;;;;4.18;1.60;;;;;;;16.08;45.31;93947.16;5092010;28;20434;-73
2021/05/30 09:36:58;;;;;;;;;;;;;;;16.13;44.79;93955.75;5090878;28;20024;-73
2021/05/30 09:39:38;;;;;;;7.15;1.73;;;;;;;16.04;44.82;93947.84;5091569;28;20295;-73
2021/05/30 09:42:25;;;;;;;2.50;1.55;;;;;;;16.05;44.83;93941.34;5091736;28;20020;-73
2021/05/30 09:45:10;;;;;;;3.05;2.05;;;;;;;16.10;44.10;93944.88;5091940;28;20558;-73
2021/05/30 09:47:45;;;;;;;6.10;2.05;;;;;;;16.08;44.07;93929.13;5091794;28;20031;-73
2021/05/30 09:50:20;;;;;;;3.20;2.05;;;;;;;16.11;44.94;93941.09;5090203;28;20027;-73
2021/05/30 09:52:51;;;;;;;5.28;2.42;;;;;;;16.17;44.47;93937.78;5105831;28;20031;-74
2021/05/30 09:55:28;;;;;;;4.28;1.90;;;;;;;16.35;44.43;93932.84;5110570;28;20442;-74
2021/05/30 09:58:08;;;;;;;2.63;1.52;;;;;;;16.31;44.04;93923.91;5110605;28;20412;-73
2021/05/30 10:00:34;;;;;;;4.82;1.80;;;;;;;16.36;44.55;93925.56;5110616;28;20024;-73
2021/05/30 10:02:59;;;;;;;2.90;1.63;;;;;;;16.24;43.54;93921.84;5111118;27;20445;-73
2021/05/30 10:05:25;;;;;;;3.95;1.90;;;;;;;16.18;42.43;93922.44;5091514;28;20031;-73
2021/05/30 10:07:51;;;;;;;3.78;1.65;;;;;;;16.13;42.55;93917.31;5095031;28;20048;-73
2021/05/30 10:10:17;;;;;;;6.70;1.40;;;;;;;16.27;43.70;93906.16;5105488;28;20028;-73
2021/05/30 10:12:44;;;;;;;4.72;1.88;;;;;;;16.32;42.49;93903.94;5090176;28;20472;-74
2021/05/30 10:15:10;;;;;;;4.03;1.50;;;;;;;16.37;43.83;93902.94;5089877;28;20028;-74
2021/05/30 10:17:38;;;;;;;2.28;1.40;;;;;;;16.53;43.77;93889.47;5091376;28;20103;-74
2021/05/30 10:20:11;;;;;;;10.02;1.70;;;;;;;16.78;43.59;93890.78;5091414;28;20384;-74
2021/05/30 10:22:40;;;;;;;2.45;1.58;;;;;;;16.99;42.53;93887.81;5091341;28;20102;-74
2021/05/30 10:25:06;;;;;;;3.67;2.20;;;;;;;17.15;40.84;93887.75;5089814;28;20070;-74
2021/05/30 10:27:32;;;;;;;4.15;1.52;;;;;;;17.39;41.76;93884.00;5099965;28;20035;-73
2021/05/30 10:30:18;;;;;;;4.10;1.73;;;;;;;17.67;40.35;93901.88;5097087;28;20070;-73
2021/05/30 10:32:46;;;;;;;3.25;1.65;;;;;;;17.60;40.31;93885.53;5109375;28;20032;-73
2021/05/30 10:35:11;;;;;;;2.67;1.70;;;;;;;17.59;40.72;93894.78;5100807;28;20150;-73
2021/05/30 10:37:42;;;;;;;5.32;1.77;;;;;;;17.60;40.01;93885.53;5095573;28;20034;-73
2021/05/30 10:40:23;;;;;;;3.55;1.73;;;;;;;17.77;39.19;93887.81;5102660;28;20428;-73
2021/05/30 10:43:07;;;;;;;4.35;1.35;;;;;;;18.03;39.87;93886.34;5095391;28;20027;-74
2021/05/30 10:45:33;;;;;;;4.05;1.65;;;;;;;18.25;37.29;93876.69;5097787;28;20047;-73
2021/05/30 10:48:04;;;;;;;7.63;1.55;;;;;;;18.32;38.38;93882.22;5102922;28;20066;-73
2021/05/30 10:53:47;;;;;;;2.72;1.77;;;;;;;18.43;38.20;93883.16;5086547;28;20035;-73
2021/05/30 10:56:12;;;;;;;2.17;1.50;;;;;;;18.47;36.85;93877.03;5089025;28;20027;-73
2021/05/30 10:58:38;;;;;;;4.43;2.13;;;;;;;18.57;36.99;93877.19;5089333;28;20498;-73
2021/05/30 11:01:03;;;;;;;3.42;1.75;;;;;;;18.93;37.41;93866.94;5090420;28;20028;-73
2021/05/30 11:03:28;;;;;;;2.22;1.40;;;;;;;19.14;38.62;93876.47;5098231;28;20102;-73
2021/05/30 11:05:57;;;;;;;9.20;2.72;;;;;;;19.06;37.32;93877.50;5110575;28;20054;-73
2021/05/30 11:08:31;;;;;;;5.40;2.00;;;;;;;19.11;40.14;93882.56;5087964;28;20415;-73
2021/05/30 11:11:20;;;;;;;14.40;1.77;;;;;;;18.94;41.07;93879.28;5088669;28;20032;-73
2021/05/30 11:13:49;;;;;;;3.42;1.98;;;;;;;18.83;39.99;93883.78;5095068;28;20510;-73
2021/05/30 11:16:25;;;;;;;7.97;2.03;;;;;;;18.79;39.56;93888.34;5109167;28;20032;-73
2021/05/30 11:19:00;;;;;;;17.25;1.95;;;;;;;18.89;41.19;93885.00;5103023;28;20423;-73
2021/05/30 11:21:31;;;;;;;4.20;1.92;;;;;;;19.18;39.52;93885.38;5100117;28;20020;-73
2021/05/30 11:24:04;;;;;;;7.63;1.87;;;;;;;19.05;38.90;93879.44;5126235;27;20020;-73
2021/05/30 11:26:29;;;;;;;;;;;;;;;19.02;38.93;93880.94;5110714;28;20257;-73
2021/05/30 11:28:55;;;;;;;10.50;1.98;;;;;;;19.08;39.17;93875.22;5090904;28;20015;-74
2021/05/30 11:31:21;;;;;;;7.68;1.80;;;;;;;19.20;39.71;93881.16;5088625;28;20023;-73
2021/05/30 11:33:54;;;;;;;4.30;2.40;;;;;;;19.07;39.49;93876.34;5094029;28;20039;-73
2021/05/30 11:36:29;;;;;;;2.67;1.65;;;;;;;19.06;40.68;93885.63;5110194;28;20024;-73